Time;durP1;ratioP1;P1;durP2;ratioP2;P2;SDS_P1;SDS_P2;PMS_P1;PMS_P2;Temp;Humidity;BMP_temperature;BMP_pressure;BME280_temperature;BME280_humidity;BME280_pressure;Samples;Min_cycle;Max_cycle;Signal;HPM_P1;HPM_P2
2021/09/18 00:01:07;;;;;;;;;;;8.70;99.90;;;;;;8297489;28;19905;-61
2021/09/18 00:05:08;;;;;;;;;;;8.70;99.90;;;;;;8279646;28;19913;-61
2021/09/18 00:09:08;;;;;;;;;;;9.00;99.90;;;;;;8297400;28;19954;-61
2021/09/18 00:13:09;;;;;;;;;;;8.80;99.90;;;;;;8297291;28;19959;-61
2021/09/18 00:17:09;;;;;;;;;;;8.70;99.90;;;;;;8296780;28;19910;-61
2021/09/18 00:21:10;;;;;;;;;;;8.70;99.90;;;;;;8279124;28;20438;-60
2021/09/18 00:25:10;;;;;;;;;;;8.50;99.90;;;;;;8296528;28;19909;-61
2021/09/18 00:29:11;;;;;;;;;;;8.30;99.90;;;;;;8296788;28;19960;-61
2021/09/18 00:33:11;;;;;;;;;;;8.30;99.90;;;;;;8296572;28;19905;-61
2021/09/18 00:37:12;;;;;;;;;;;8.40;99.90;;;;;;8296161;28;20336;-61
2021/09/18 00:41:12;;;;;;;;;;;8.40;99.90;;;;;;8296487;28;19905;-61
2021/09/18 00:45:13;;;;;;;;;;;8.30;99.90;;;;;;8295893;28;19917;-61
2021/09/18 00:49:13;;;;;;;;;;;8.10;99.90;;;;;;8296130;28;19905;-60
2021/09/18 00:53:14;;;;;;;;;;;8.20;99.90;;;;;;8296462;28;19960;-61
2021/09/18 00:57:16;;;;;;;;;;;8.30;99.90;;;;;;8295784;28;19905;-61
2021/09/18 01:01:16;;;;;;;;;;;7.90;99.90;;;;;;8295855;28;19905;-61
2021/09/18 01:05:16;;;;;;;;;;;8.00;99.90;;;;;;8295371;28;20332;-61
2021/09/18 01:09:17;;;;;;;;;;;8.10;99.90;;;;;;8295780;28;19909;-60
2021/09/18 01:13:20;;;;;;;;;;;8.10;99.90;;;;;;8277949;28;19905;-61
2021/09/18 01:17:20;;;;;;;;;;;8.10;99.90;;;;;;8295629;28;19909;-61
2021/09/18 01:21:21;;;;;;;;;;;8.00;99.90;;;;;;8295597;28;19972;-61
2021/09/18 01:25:21;;;;;;;;;;;8.10;99.90;;;;;;8295003;28;19909;-61
2021/09/18 01:29:22;;;;;;;;;;;8.20;99.90;;;;;;8295254;28;19992;-59
2021/09/18 01:33:23;;;;;;;;;;;7.90;99.90;;;;;;8294646;28;19906;-61
2021/09/18 01:37:23;;;;;;;;;;;8.00;99.90;;;;;;8294440;28;19906;-61
2021/09/18 01:41:26;;;;;;;;;;;7.90;99.90;;;;;;8276959;28;20285;-61
2021/09/18 01:45:27;;;;;;;;;;;7.90;99.90;;;;;;8293647;28;19917;-60
2021/09/18 01:49:28;;;;;;;;;;;7.80;99.90;;;;;;8294325;28;19910;-61
2021/09/18 01:53:29;;;;;;;;;;;7.80;99.90;;;;;;8294538;28;20417;-60
2021/09/18 01:57:30;;;;;;;;;;;7.90;99.90;;;;;;8293955;28;19959;-61
2021/09/18 02:01:30;;;;;;;;;;;7.80;99.90;;;;;;8262333;28;19960;-61
2021/09/18 02:05:31;;;;;;;;;;;7.80;99.90;;;;;;8260438;28;20448;-60
2021/09/18 02:09:31;;;;;;;;;;;7.70;99.90;;;;;;8261021;28;19941;-62
2021/09/18 02:13:32;;;;;;;;;;;7.80;99.90;;;;;;8259140;28;19910;-62
2021/09/18 02:17:32;;;;;;;;;;;8.00;99.90;;;;;;8262253;28;19928;-62
2021/09/18 02:21:33;;;;;;;;;;;7.80;99.90;;;;;;8260721;28;19910;-61
2021/09/18 02:25:33;;;;;;;;;;;7.80;99.90;;;;;;8259661;28;19910;-62
2021/09/18 02:29:34;;;;;;;;;;;7.70;99.90;;;;;;8260558;28;19905;-62
2021/09/18 02:33:35;;;;;;;;;;;7.70;99.90;;;;;;8258424;28;19910;-62
2021/09/18 02:37:35;;;;;;;;;;;7.80;99.90;;;;;;8260286;28;20028;-62
2021/09/18 02:41:36;;;;;;;;;;;8.10;99.90;;;;;;8261060;28;19916;-61
2021/09/18 02:45:36;;;;;;;;;;;7.90;99.90;;;;;;8267020;28;19916;-61
2021/09/18 02:49:37;;;;;;;;;;;7.80;99.90;;;;;;8288171;28;20396;-62
2021/09/18 02:53:37;;;;;;;;;;;7.70;99.90;;;;;;8299856;28;19933;-62
2021/09/18 02:57:38;;;;;;;;;;;7.70;99.90;;;;;;8280989;28;19909;-62
2021/09/18 03:01:38;;;;;;;;;;;7.60;99.90;;;;;;8298954;28;19906;-61
2021/09/18 03:05:39;;;;;;;;;;;7.60;99.90;;;;;;8298705;28;19955;-61
2021/09/18 03:09:39;;;;;;;;;;;7.50;99.90;;;;;;8298017;28;19905;-61
2021/09/18 03:13:40;;;;;;;;;;;7.70;99.90;;;;;;8298814;28;19909;-61
2021/09/18 03:17:40;;;;;;;;;;;7.50;99.90;;;;;;8298583;28;19914;-62
2021/09/18 03:21:41;;;;;;;;;;;7.40;99.90;;;;;;8281164;28;20016;-62
2021/09/18 03:25:43;;;;;;;;;;;7.30;99.90;;;;;;8298394;28;19914;-60
2021/09/18 03:29:44;;;;;;;;;;;7.20;99.90;;;;;;8298368;28;19987;-62
2021/09/18 03:33:44;;;;;;;;;;;7.30;99.90;;;;;;8298345;28;19932;-62
2021/09/18 03:37:45;;;;;;;;;;;7.20;99.90;;;;;;8298132;28;19932;-62
2021/09/18 03:41:45;;;;;;;;;;;7.30;99.90;;;;;;8303639;22;19929;-62
2021/09/18 03:45:46;;;;;;;;;;;7.40;99.90;;;;;;8295009;28;19952;-63
2021/09/18 03:49:46;;;;;;;;;;;7.60;99.90;;;;;;8297823;28;19971;-62
2021/09/18 03:53:47;;;;;;;;;;;7.50;99.90;;;;;;8297294;28;19909;-62
2021/09/18 03:57:47;;;;;;;;;;;7.30;99.90;;;;;;8297498;28;19916;-62
2021/09/18 04:01:47;;;;;;;;;;;7.40;99.90;;;;;;8297688;28;20293;-62
2021/09/18 04:05:48;;;;;;;;;;;7.20;99.90;;;;;;8296976;28;20459;-63
2021/09/18 04:09:49;;;;;;;;;;;7.10;99.90;;;;;;8297333;28;19996;-62
2021/09/18 04:13:51;;;;;;;;;;;7.10;99.90;;;;;;8297147;28;19913;-62
2021/09/18 04:17:51;;;;;;;;;;;7.20;99.90;;;;;;8296774;28;20003;-63
2021/09/18 04:21:52;;;;;;;;;;;7.10;99.90;;;;;;8296408;28;19905;-62
2021/09/18 04:25:52;;;;;;;;;;;7.10;99.90;;;;;;8296499;28;19940;-63
2021/09/18 04:29:53;;;;;;;;;;;7.20;99.90;;;;;;8297213;28;19913;-62
2021/09/18 04:33:53;;;;;;;;;;;7.30;99.90;;;;;;8296357;28;19905;-62
2021/09/18 04:37:53;;;;;;;;;;;7.20;99.90;;;;;;8296099;28;19912;-62
2021/09/18 04:41:54;;;;;;;;;;;7.30;99.90;;;;;;8296072;28;19953;-62
2021/09/18 04:45:55;;;;;;;;;;;7.50;99.90;;;;;;8289846;28;20365;-62
2021/09/18 04:49:55;;;;;;;;;;;7.20;99.90;;;;;;8295069;28;19913;-63
2021/09/18 04:53:56;;;;;;;;;;;7.50;99.90;;;;;;8293239;28;19905;-62
2021/09/18 04:57:56;;;;;;;;;;;7.50;99.90;;;;;;8295471;28;19929;-62
2021/09/18 05:01:56;;;;;;;;;;;7.50;99.90;;;;;;8294468;28;20366;-62
2021/09/18 05:05:57;;;;;;;;;;;7.50;99.90;;;;;;8294324;28;20397;-63
2021/09/18 05:09:58;;;;;;;;;;;7.40;99.90;;;;;;8295270;28;19905;-62
2021/09/18 05:13:58;;;;;;;;;;;7.40;99.90;;;;;;8295401;28;19949;-62
2021/09/18 05:17:59;;;;;;;;;;;7.60;99.90;;;;;;8295277;28;20376;-63
2021/09/18 05:21:59;;;;;;;;;;;7.70;99.90;;;;;;8294854;28;19932;-62
2021/09/18 05:26:00;;;;;;;;;;;7.70;99.90;;;;;;8294233;28;20510;-62
2021/09/18 05:30:01;;;;;;;;;;;7.80;99.90;;;;;;8295214;28;19910;-62
2021/09/18 05:34:01;;;;;;;;;;;7.80;99.90;;;;;;8276006;28;19914;-62
2021/09/18 05:38:02;;;;;;;;;;;7.80;99.90;;;;;;8294194;28;19913;-62
2021/09/18 05:42:02;;;;;;;;;;;7.80;99.90;;;;;;8293812;28;19913;-63
2021/09/18 05:46:04;;;;;;;;;;;7.90;99.90;;;;;;8293633;28;19917;-62
2021/09/18 05:50:04;;;;;;;;;;;8.00;99.90;;;;;;8293678;28;19916;-62
2021/09/18 05:54:05;;;;;;;;;;;8.00;99.90;;;;;;8293447;28;19913;-63
2021/09/18 05:58:05;;;;;;;;;;;8.10;99.90;;;;;;8293261;28;19917;-62
2021/09/18 06:02:06;;;;;;;;;;;8.30;99.90;;;;;;8292569;28;20382;-62
2021/09/18 06:06:06;;;;;;;;;;;8.40;99.90;;;;;;8290615;28;19920;-63
2021/09/18 06:10:07;;;;;;;;;;;8.40;99.90;;;;;;8290962;28;19905;-63
2021/09/18 06:14:07;;;;;;;;;;;8.50;99.90;;;;;;8291563;28;19912;-63
2021/09/18 06:18:08;;;;;;;;;;;8.90;99.90;;;;;;8292473;28;19909;-62
2021/09/18 06:22:12;;;;;;;;;;;9.00;99.90;;;;;;8293820;28;19913;-63
2021/09/18 06:26:14;;;;;;;;;;;9.00;99.90;;;;;;8292485;28;20040;-63
2021/09/18 06:30:15;;;;;;;;;;;9.20;99.90;;;;;;8292215;28;20293;-62
2021/09/18 06:34:15;;;;;;;;;;;9.50;99.90;;;;;;8292233;28;19914;-63
2021/09/18 06:38:21;;;;;;;;;;;9.70;99.90;;;;;;8292045;28;20281;-63
2021/09/18 06:42:22;;;;;;;;;;;10.00;99.90;;;;;;8292050;28;19917;-63
2021/09/18 06:46:22;;;;;;;;;;;10.30;99.90;;;;;;8291616;28;19914;-63
2021/09/18 06:50:23;;;;;;;;;;;10.40;99.90;;;;;;8291950;28;19909;-63
2021/09/18 06:54:23;;;;;;;;;;;10.50;99.90;;;;;;8292099;28;19952;-63
2021/09/18 06:58:24;;;;;;;;;;;10.70;99.90;;;;;;8292465;28;19905;-63
2021/09/18 07:02:24;;;;;;;;;;;10.90;99.90;;;;;;8290632;28;19948;-63
2021/09/18 07:06:24;;;;;;;;;;;11.40;99.90;;;;;;8290707;28;19914;-63
2021/09/18 07:10:25;;;;;;;;;;;11.40;99.90;;;;;;8291104;28;19913;-63
2021/09/18 07:14:25;;;;;;;;;;;11.70;99.90;;;;;;8291266;28;19928;-63
2021/09/18 07:18:26;;;;;;;;;;;12.30;99.90;;;;;;8286470;28;19909;-63
2021/09/18 07:22:26;;;;;;;;;;;12.50;99.90;;;;;;8292783;28;19983;-63
2021/09/18 07:26:27;;;;;;;;;;;12.40;99.90;;;;;;8292363;28;19909;-63
2021/09/18 07:30:28;;;;;;;;;;;12.50;99.90;;;;;;8296701;28;19905;-63
2021/09/18 07:34:28;;;;;;;;;;;12.60;99.90;;;;;;8297685;28;19940;-63
2021/09/18 07:38:28;;;;;;;;;;;12.80;99.90;;;;;;8280314;28;20278;-63
2021/09/18 07:42:29;;;;;;;;;;;13.00;99.90;;;;;;8298003;28;20022;-63
2021/09/18 07:46:30;;;;;;;;;;;13.20;99.90;;;;;;8297762;28;20258;-63
2021/09/18 07:50:31;;;;;;;;;;;13.50;99.90;;;;;;8297930;28;19905;-63
2021/09/18 07:54:31;;;;;;;;;;;13.90;99.90;;;;;;8297240;28;19939;-63
2021/09/18 07:58:32;;;;;;;;;;;14.10;99.90;;;;;;8297894;28;19960;-63
2021/09/18 08:02:32;;;;;;;;;;;14.30;99.90;;;;;;8297549;28;20267;-63
2021/09/18 08:06:34;;;;;;;;;;;14.60;99.90;;;;;;8297115;28;20199;-63
2021/09/18 08:10:34;;;;;;;;;;;14.90;99.90;;;;;;8295778;28;19913;-63
2021/09/18 08:14:35;;;;;;;;;;;15.10;99.90;;;;;;8277910;28;20354;-63
2021/09/18 08:18:35;;;;;;;;;;;15.60;99.90;;;;;;8295951;28;19940;-63
2021/09/18 08:22:36;;;;;;;;;;;15.80;99.90;;;;;;8296805;28;19937;-63
2021/09/18 08:26:36;;;;;;;;;;;15.90;99.90;;;;;;8290037;28;19917;-63
2021/09/18 08:30:37;;;;;;;;;;;16.00;99.90;;;;;;8295272;28;20302;-63
2021/09/18 08:34:37;;;;;;;;;;;16.20;99.90;;;;;;8295644;28;19913;-63
2021/09/18 08:38:38;;;;;;;;;;;16.40;99.90;;;;;;8296414;28;19905;-63
2021/09/18 08:42:42;;;;;;;;;;;16.60;99.90;;;;;;8295107;28;20043;-63
2021/09/18 08:46:42;;;;;;;;;;;16.90;99.90;;;;;;8295312;28;19936;-63
2021/09/18 08:50:43;;;;;;;;;;;17.20;99.90;;;;;;8295091;28;19915;-63
2021/09/18 08:54:44;;;;;;;;;;;17.40;99.90;;;;;;8294615;28;20345;-63
2021/09/18 08:58:45;;;;;;;;;;;17.70;99.90;;;;;;8277219;28;19905;-63
2021/09/18 09:02:52;;;;;;;;;;;17.80;99.90;;;;;;8277849;28;19913;-63
2021/09/18 09:06:52;;;;;;;;;;;17.90;99.90;;;;;;8294442;28;20449;-64
2021/09/18 09:10:53;;;;;;;;;;;18.00;99.90;;;;;;8293302;28;19920;-63
2021/09/18 09:14:54;;;;;;;;;;;18.10;99.90;;;;;;8294520;28;19954;-63
2021/09/18 09:18:55;;;;;;;;;;;18.20;99.90;;;;;;8294433;28;20000;-63
2021/09/18 09:22:55;;;;;;;;;;;18.30;99.90;;;;;;8294413;28;20392;-63
2021/09/18 09:27:15;;;;;;;;;;;18.30;99.90;;;;;;8293766;28;19937;-63
2021/09/18 09:31:29;;;;;;;;;;;18.40;99.90;;;;;;8290796;28;19905;-63
2021/09/18 09:35:30;;;;;;;;;;;18.60;99.90;;;;;;8291529;28;19917;-63
2021/09/18 09:39:30;;;;;;;;;;;18.90;99.90;;;;;;8293142;28;20330;-63
2021/09/18 09:43:43;;;;;;;;;;;19.00;99.90;;;;;;8275926;28;19967;-63
2021/09/18 09:47:45;;;;;;;;;;;19.20;99.90;;;;;;8293651;28;20452;-63
2021/09/18 09:51:45;;;;;;;;;;;19.50;99.90;;;;;;8275817;28;19979;-64
2021/09/18 09:55:45;;;;;;;;;;;19.70;99.90;;;;;;8293287;28;19959;-63
2021/09/18 09:59:46;;;;;;;;;;;19.90;99.90;;;;;;8275422;28;19940;-63
2021/09/18 10:03:47;;;;;;;;;;;20.00;99.90;;;;;;8293403;28;19938;-62
2021/09/18 10:07:47;;;;;;;;;;;20.20;99.90;;;;;;8293179;28;19960;-62
2021/09/18 10:11:48;;;;;;;;;;;20.20;99.90;;;;;;8293989;28;19975;-62
2021/09/18 10:15:49;;;;;;;;;;;20.40;99.90;;;;;;8293551;28;19905;-62
2021/09/18 10:23:50;;;;;;;;;;;20.70;99.90;;;;;;8290794;28;19916;-62
2021/09/18 10:28:10;;;;;;;;;;;20.90;99.90;;;;;;8292277;28;19921;-62
2021/09/18 10:32:11;;;;;;;;;;;21.20;99.90;;;;;;8291572;28;19960;-63
2021/09/18 10:36:16;;;;;;;;;;;21.80;99.90;;;;;;8290334;28;19960;-62
2021/09/18 10:40:17;;;;;;;;;;;21.90;99.90;;;;;;8275543;28;19931;-61
2021/09/18 10:44:18;;;;;;;;;;;22.30;99.90;;;;;;8273333;28;19913;-62
2021/09/18 10:48:33;;;;;;;;;;;22.90;99.90;;;;;;8274209;28;19936;-62
2021/09/18 10:52:37;;;;;;;;;;;22.60;99.90;;;;;;8291702;28;19909;-63
2021/09/18 10:56:56;;;;;;;;;;;26.30;99.90;;;;;;8272444;28;19916;-62
2021/09/18 11:01:01;;;;;;;;;;;30.60;93.70;;;;;;8290057;28;19910;-63
2021/09/18 11:05:05;;;;;;;;;;;34.50;71.10;;;;;;8277226;28;19913;-63
2021/09/18 11:09:06;;;;;;;;;;;35.70;58.40;;;;;;8298022;28;19913;-63
2021/09/18 11:13:06;;;;;;;;;;;36.80;53.60;;;;;;8298281;28;19916;-63
2021/09/18 11:17:28;;;;;;;;;;;36.10;48.80;;;;;;8297584;28;19944;-63
2021/09/18 11:21:37;;;;;;;;;;;34.80;47.60;;;;;;8281404;28;19913;-62
2021/09/18 11:25:41;;;;;;;;;;;34.50;48.60;;;;;;8278995;28;19913;-63
2021/09/18 11:29:45;;;;;;;;;;;36.30;47.60;;;;;;8297004;28;20001;-63
2021/09/18 11:33:49;;;;;;;;;;;38.60;44.00;;;;;;8278330;28;19909;-63
2021/09/18 11:37:49;;;;;;;;;;;39.80;42.00;;;;;;8295752;28;19933;-63
2021/09/18 11:41:50;;;;;;;;;;;37.10;44.00;;;;;;8295069;28;19909;-63
2021/09/18 11:45:50;;;;;;;;;;;36.80;43.40;;;;;;8294994;28;19964;-63
2021/09/18 11:49:51;;;;;;;;;;;38.20;41.80;;;;;;8295956;28;19913;-63
2021/09/18 11:53:58;;;;;;;;;;;40.20;38.60;;;;;;8293816;28;19917;-64
2021/09/18 11:58:15;;;;;;;;;;;40.90;65.50;;;;;;8295048;28;19912;-63
2021/09/18 12:02:28;;;;;;;;;;;40.90;36.50;;;;;;8296653;28;19909;-63
2021/09/18 12:06:29;;;;;;;;;;;42.00;34.00;;;;;;8296788;28;19936;-63
2021/09/18 12:10:29;;;;;;;;;;;42.70;34.00;;;;;;8296421;28;20262;-63
2021/09/18 12:14:34;;;;;;;;;;;43.80;32.70;;;;;;8278522;28;20437;-63
2021/09/18 12:18:36;;;;;;;;;;;43.70;29.90;;;;;;8296670;28;19910;-64
2021/09/18 12:22:37;;;;;;;;;;;41.30;34.50;;;;;;8296576;28;19909;-63
2021/09/18 12:26:39;;;;;;;;;;;42.30;33.20;;;;;;8295499;28;20381;-63
2021/09/18 12:30:41;;;;;;;;;;;42.80;32.20;;;;;;8296220;28;19960;-63
2021/09/18 12:34:41;;;;;;;;;;;43.90;29.80;;;;;;8277077;28;19909;-64
2021/09/18 12:38:43;;;;;;;;;;;44.80;29.00;;;;;;8294837;28;19968;-64
2021/09/18 12:42:43;;;;;;;;;;;45.50;28.30;;;;;;8291839;28;19992;-62
2021/09/18 12:46:45;;;;;;;;;;;42.70;30.00;;;;;;8289936;28;19913;-63
2021/09/18 12:51:06;;;;;;;;;;;41.70;31.30;;;;;;8295287;28;20000;-63
2021/09/18 12:55:07;;;;;;;;;;;41.70;31.40;;;;;;8294959;28;19906;-63
2021/09/18 12:59:07;;;;;;;;;;;42.30;30.30;;;;;;8293702;28;19971;-65
2021/09/18 13:03:12;;;;;;;;;;;44.20;28.80;;;;;;8268534;28;19909;-65
2021/09/18 13:07:12;;;;;;;;;;;45.00;27.90;;;;;;8274980;28;20412;-65
2021/09/18 13:11:17;;;;;;;;;;;44.70;27.90;;;;;;8294825;28;19906;-65
2021/09/18 13:15:17;;;;;;;;;;;44.40;27.30;;;;;;8293599;28;19956;-65
2021/09/18 13:19:18;;;;;;;;;;;45.50;27.30;;;;;;8293762;28;19917;-65
2021/09/18 13:23:18;;;;;;;;;;;44.40;27.50;;;;;;8294354;28;20000;-64
2021/09/18 13:27:19;;;;;;;;;;;44.60;27.10;;;;;;8292186;28;19913;-65
2021/09/18 13:31:19;;;;;;;;;;;42.90;28.10;;;;;;8293636;28;19909;-65
2021/09/18 13:35:20;;;;;;;;;;;42.50;28.70;;;;;;8293737;28;19912;-64
2021/09/18 13:39:20;;;;;;;;;;;41.80;29.20;;;;;;8276146;28;19917;-63
2021/09/18 13:43:21;;;;;;;;;;;36.10;33.90;;;;;;8293522;28;19922;-63
2021/09/18 13:47:21;;;;;;;;;;;34.10;40.50;;;;;;8293590;28;19925;-64
2021/09/18 13:51:22;;;;;;;;;;;37.60;35.70;;;;;;8292227;28;19914;-64
2021/09/18 13:55:23;;;;;;;;;;;41.20;30.90;;;;;;8273777;28;19914;-64
2021/09/18 13:59:23;;;;;;;;;;;43.10;28.70;;;;;;8292974;28;19905;-64
2021/09/18 14:03:24;;;;;;;;;;;44.10;28.10;;;;;;8292654;28;19920;-64
2021/09/18 14:07:24;;;;;;;;;;;44.90;27.70;;;;;;8293084;28;19964;-65
2021/09/18 14:11:25;;;;;;;;;;;44.20;28.30;;;;;;8293439;28;19991;-64
2021/09/18 14:15:26;;;;;;;;;;;44.50;27.20;;;;;;8293336;28;19956;-64
2021/09/18 14:19:26;;;;;;;;;;;43.70;28.20;;;;;;8293977;28;19905;-65
2021/09/18 14:23:27;;;;;;;;;;;43.90;28.50;;;;;;8293964;28;19992;-65
2021/09/18 14:27:27;;;;;;;;;;;44.60;27.90;;;;;;8293273;28;19914;-64
2021/09/18 14:31:28;;;;;;;;;;;44.70;26.90;;;;;;8293551;28;20349;-64
2021/09/18 14:35:28;;;;;;;;;;;43.70;26.70;;;;;;8287398;28;20365;-64
2021/09/18 14:39:29;;;;;;;;;;;43.30;28.30;;;;;;8298321;28;19913;-64
2021/09/18 14:43:29;;;;;;;;;;;43.90;28.00;;;;;;8282106;28;19913;-64
2021/09/18 14:47:30;;;;;;;;;;;44.10;27.20;;;;;;8298777;28;19914;-64
2021/09/18 14:51:31;;;;;;;;;;;44.10;27.50;;;;;;8298872;28;19909;-65
2021/09/18 14:55:32;;;;;;;;;;;43.50;27.30;;;;;;8279023;28;19987;-64
2021/09/18 14:59:32;;;;;;;;;;;42.50;27.60;;;;;;8298598;28;19965;-64
2021/09/18 15:03:33;;;;;;;;;;;41.80;28.80;;;;;;8281297;28;19906;-65
2021/09/18 15:07:34;;;;;;;;;;;41.50;29.40;;;;;;8299103;28;19937;-65
2021/09/18 15:11:34;;;;;;;;;;;40.50;29.90;;;;;;8298984;28;19905;-65
2021/09/18 15:15:35;;;;;;;;;;;40.40;29.90;;;;;;8299009;28;20004;-64
2021/09/18 15:19:36;;;;;;;;;;;39.90;30.80;;;;;;8298967;28;20400;-65
2021/09/18 15:23:36;;;;;;;;;;;39.70;31.40;;;;;;8296439;28;20075;-65
2021/09/18 15:27:36;;;;;;;;;;;39.40;31.50;;;;;;8294746;28;19956;-65
2021/09/18 15:31:38;;;;;;;;;;;39.20;31.70;;;;;;8280066;28;19916;-64
2021/09/18 15:35:38;;;;;;;;;;;38.30;32.10;;;;;;8297302;28;19916;-65
2021/09/18 15:39:39;;;;;;;;;;;37.70;32.60;;;;;;8298584;28;20263;-65
2021/09/18 15:43:41;;;;;;;;;;;37.10;35.20;;;;;;8298005;28;19914;-65
2021/09/18 15:47:42;;;;;;;;;;;35.70;35.50;;;;;;8297636;28;19910;-65
2021/09/18 15:51:42;;;;;;;;;;;34.90;36.30;;;;;;8297204;28;19910;-65
2021/09/18 15:55:42;;;;;;;;;;;34.80;37.20;;;;;;8297482;28;19913;-65
2021/09/18 15:59:43;;;;;;;;;;;34.80;37.80;;;;;;8297493;28;19916;-65
2021/09/18 16:03:43;;;;;;;;;;;34.90;36.90;;;;;;8296887;28;19905;-64
2021/09/18 16:07:44;;;;;;;;;;;35.10;37.20;;;;;;8279817;28;20006;-65
2021/09/18 16:11:44;;;;;;;;;;;35.10;37.40;;;;;;8297051;28;19910;-65
2021/09/18 16:15:45;;;;;;;;;;;35.30;36.10;;;;;;8296996;28;19916;-65
2021/09/18 16:19:45;;;;;;;;;;;35.10;37.60;;;;;;8297143;28;19910;-65
2021/09/18 16:23:46;;;;;;;;;;;35.00;37.80;;;;;;8297039;28;19943;-65
2021/09/18 16:27:46;;;;;;;;;;;34.40;37.80;;;;;;8296667;28;20289;-65
2021/09/18 16:31:47;;;;;;;;;;;32.70;39.50;;;;;;8296282;28;19996;-65
2021/09/18 16:35:47;;;;;;;;;;;30.40;43.10;;;;;;8295860;28;20007;-64
2021/09/18 16:39:48;;;;;;;;;;;27.50;49.20;;;;;;8296327;28;19913;-64
2021/09/18 16:43:48;;;;;;;;;;;26.60;50.30;;;;;;8296234;28;19924;-64
2021/09/18 16:47:52;;;;;;;;;;;24.70;55.70;;;;;;8294474;28;20301;-64
2021/09/18 16:51:53;;;;;;;;;;;23.00;60.90;;;;;;8294996;28;19932;-64
2021/09/18 16:55:54;;;;;;;;;;;21.60;67.80;;;;;;8295662;28;19914;-63
2021/09/18 16:59:54;;;;;;;;;;;20.60;73.50;;;;;;8294930;28;19955;-64
2021/09/18 17:03:55;;;;;;;;;;;19.90;79.30;;;;;;8294295;28;19978;-64
2021/09/18 17:07:55;;;;;;;;;;;19.30;83.70;;;;;;8294425;28;20059;-64
2021/09/18 17:11:56;;;;;;;;;;;18.80;91.90;;;;;;8295141;28;19905;-64
2021/09/18 17:15:56;;;;;;;;;;;18.40;96.20;;;;;;8294764;28;19905;-64
2021/09/18 17:19:57;;;;;;;;;;;17.90;99.90;;;;;;8295345;28;20382;-64
2021/09/18 17:23:57;;;;;;;;;;;17.40;99.90;;;;;;8295345;28;19915;-64
2021/09/18 17:27:58;;;;;;;;;;;17.10;99.90;;;;;;8295235;28;19910;-64
2021/09/18 17:31:58;;;;;;;;;;;16.80;99.90;;;;;;8295395;28;19906;-64
2021/09/18 17:35:58;;;;;;;;;;;16.70;99.90;;;;;;8277419;28;20028;-64
2021/09/18 17:39:59;;;;;;;;;;;16.70;99.90;;;;;;8277734;28;19905;-64
2021/09/18 17:43:59;;;;;;;;;;;16.70;99.90;;;;;;8294790;28;19917;-64
2021/09/18 17:48:01;;;;;;;;;;;16.20;99.90;;;;;;8294609;28;19928;-64
2021/09/18 17:52:01;;;;;;;;;;;15.80;99.90;;;;;;8294558;28;19913;-64
2021/09/18 17:56:02;;;;;;;;;;;15.60;99.90;;;;;;8294037;28;20086;-64
2021/09/18 18:00:04;;;;;;;;;;;15.30;99.90;;;;;;8294243;28;20416;-64
2021/09/18 18:04:05;;;;;;;;;;;15.20;99.90;;;;;;8294237;28;20381;-64
2021/09/18 18:08:05;;;;;;;;;;;15.10;99.90;;;;;;8276206;28;19916;-64
2021/09/18 18:12:06;;;;;;;;;;;15.20;99.90;;;;;;8291642;28;19906;-64
2021/09/18 18:16:06;;;;;;;;;;;15.10;99.90;;;;;;8290618;28;19905;-64
2021/09/18 18:20:07;;;;;;;;;;;14.80;99.90;;;;;;8292246;28;19941;-64
2021/09/18 18:24:08;;;;;;;;;;;14.50;99.90;;;;;;8293588;28;20307;-64
2021/09/18 18:28:08;;;;;;;;;;;14.60;99.90;;;;;;8293573;28;20008;-64
2021/09/18 18:32:10;;;;;;;;;;;14.60;99.90;;;;;;8291435;28;19906;-64
2021/09/18 18:36:11;;;;;;;;;;;14.40;99.90;;;;;;8291192;28;19905;-64
2021/09/18 18:40:11;;;;;;;;;;;14.20;99.90;;;;;;8292655;28;20362;-64
2021/09/18 18:44:12;;;;;;;;;;;13.90;99.90;;;;;;8293260;28;19914;-64
2021/09/18 18:48:12;;;;;;;;;;;13.70;99.90;;;;;;8293173;28;19913;-64
2021/09/18 18:52:13;;;;;;;;;;;13.40;99.90;;;;;;8292922;28;20442;-64
2021/09/18 18:56:13;;;;;;;;;;;13.40;99.90;;;;;;8288494;28;20365;-63
2021/09/18 19:00:14;;;;;;;;;;;13.30;99.90;;;;;;8288260;28;19909;-64
2021/09/18 19:04:15;;;;;;;;;;;13.10;99.90;;;;;;8287220;28;20627;-64
2021/09/18 19:08:17;;;;;;;;;;;13.10;99.90;;;;;;8287599;28;19976;-64
2021/09/18 19:12:18;;;;;;;;;;;13.00;99.90;;;;;;8288111;28;20402;-64
2021/09/18 19:16:18;;;;;;;;;;;13.00;99.90;;;;;;8288867;28;19905;-64
2021/09/18 19:20:19;;;;;;;;;;;13.00;99.90;;;;;;8278290;28;19953;-64
2021/09/18 19:24:19;;;;;;;;;;;12.70;99.90;;;;;;8240417;28;19909;-64
2021/09/18 19:28:20;;;;;;;;;;;12.90;99.90;;;;;;8262397;28;19953;-64
2021/09/18 19:32:20;;;;;;;;;;;12.40;99.90;;;;;;8264116;28;19932;-64
2021/09/18 19:36:21;;;;;;;;;;;12.40;99.90;;;;;;8293622;28;19913;-64
2021/09/18 19:40:24;;;;;;;;;;;12.30;99.90;;;;;;8293773;28;19915;-63
2021/09/18 19:44:25;;;;;;;;;;;12.20;99.90;;;;;;8290852;28;20000;-64
2021/09/18 19:48:25;;;;;;;;;;;11.90;99.90;;;;;;8293645;28;19913;-64
2021/09/18 19:52:25;;;;;;;;;;;11.90;99.90;;;;;;8293590;28;20427;-63
2021/09/18 19:56:26;;;;;;;;;;;11.90;99.90;;;;;;8276048;28;19906;-64
2021/09/18 20:00:26;;;;;;;;;;;12.00;99.90;;;;;;8294122;28;19916;-64
2021/09/18 20:04:27;;;;;;;;;;;11.70;99.90;;;;;;8276417;28;19998;-64
2021/09/18 20:08:28;;;;;;;;;;;11.70;99.90;;;;;;8293853;28;19924;-63
2021/09/18 20:12:28;;;;;;;;;;;11.90;99.90;;;;;;8293967;28;19909;-63
2021/09/18 20:16:29;;;;;;;;;;;11.50;99.90;;;;;;8293521;28;19909;-63
2021/09/18 20:20:29;;;;;;;;;;;11.40;99.90;;;;;;8275116;28;19960;-63
2021/09/18 20:24:30;;;;;;;;;;;11.40;99.90;;;;;;8293187;28;20048;-64
2021/09/18 20:28:30;;;;;;;;;;;11.20;99.90;;;;;;8293059;28;19913;-63
2021/09/18 20:32:31;;;;;;;;;;;11.30;99.90;;;;;;8292282;28;19940;-63
2021/09/18 20:36:31;;;;;;;;;;;11.20;99.90;;;;;;8291591;28;19920;-64
2021/09/18 20:40:33;;;;;;;;;;;10.90;99.90;;;;;;8291636;28;19909;-63
2021/09/18 20:44:33;;;;;;;;;;;10.80;99.90;;;;;;8280664;28;19921;-63
2021/09/18 20:48:34;;;;;;;;;;;10.90;99.90;;;;;;8270122;28;19944;-63
2021/09/18 20:52:35;;;;;;;;;;;11.00;99.90;;;;;;8289597;28;19916;-63
2021/09/18 20:56:35;;;;;;;;;;;10.80;99.90;;;;;;8272764;28;20372;-63
2021/09/18 21:00:40;;;;;;;;;;;10.60;99.90;;;;;;8290943;28;20420;-64
2021/09/18 21:04:40;;;;;;;;;;;10.50;99.90;;;;;;8290062;28;20008;-63
2021/09/18 21:08:41;;;;;;;;;;;10.50;99.90;;;;;;8274843;28;19913;-63
2021/09/18 21:12:41;;;;;;;;;;;10.60;99.90;;;;;;8258483;28;19905;-64
2021/09/18 21:16:42;;;;;;;;;;;10.50;99.90;;;;;;8262688;28;19905;-63
2021/09/18 21:20:42;;;;;;;;;;;10.60;99.90;;;;;;8292274;28;20267;-63
2021/09/18 21:24:43;;;;;;;;;;;10.60;99.90;;;;;;8276897;28;19909;-63
2021/09/18 21:28:43;;;;;;;;;;;10.40;99.90;;;;;;8295177;28;19920;-63
2021/09/18 21:32:43;;;;;;;;;;;10.40;99.90;;;;;;8294821;28;19905;-63
2021/09/18 21:36:44;;;;;;;6.93;4.83;;;10.40;99.90;;;;;;8293983;28;20422;-63
2021/09/18 21:40:45;;;;;;;6.13;4.60;;;10.50;99.90;;;;;;8294140;28;20048;-63
2021/09/18 21:44:49;;;;;;;5.18;4.63;;;10.30;99.90;;;;;;8276206;28;20631;-63
2021/09/18 21:48:49;;;;;;;6.60;4.68;;;10.10;99.90;;;;;;8292803;28;20116;-63
2021/09/18 21:52:50;;;;;;;5.80;4.57;;;10.20;99.90;;;;;;8293473;28;20062;-63
2021/09/18 21:56:51;;;;;;;7.30;4.47;;;10.10;99.90;;;;;;8293662;28;20030;-63
2021/09/18 22:00:54;;;;;;;6.50;5.03;;;10.10;99.90;;;;;;8293814;28;20486;-63
2021/09/18 22:04:57;;;;;;;6.35;5.15;;;10.10;99.90;;;;;;8293430;28;20022;-63
2021/09/18 22:08:58;;;;;;;10.38;5.60;;;10.10;99.90;;;;;;8293637;28;20018;-63
2021/09/18 22:12:59;;;;;;;7.68;5.80;;;10.20;99.90;;;;;;8293439;28;20018;-63
2021/09/18 22:16:59;;;;;;;;;;;9.90;99.90;;;;;;8293379;28;20033;-63
2021/09/18 22:21:01;;;;;;;;;;;9.80;99.90;;;;;;8293490;28;20381;-63
2021/09/18 22:25:02;;;;;;;;;;;9.80;99.90;;;;;;8293230;28;19913;-63
2021/09/18 22:29:04;;;;;;;;;;;9.70;99.90;;;;;;8275985;28;19920;-63
2021/09/18 22:33:05;;;;;;;;;;;9.60;99.90;;;;;;8293487;28;19948;-63
2021/09/18 22:37:05;;;;;;;;;;;9.90;99.90;;;;;;8293347;28;20278;-63
2021/09/18 22:41:06;;;;;;;;;;;9.90;99.90;;;;;;8293651;28;19913;-63
2021/09/18 22:45:06;;;;;;;;;;;9.70;99.90;;;;;;8293319;28;19914;-63
2021/09/18 22:49:07;;;;;;;;;;;9.50;99.90;;;;;;8293164;28;19913;-63
2021/09/18 22:53:07;;;;;;;;;;;9.30;99.90;;;;;;8275398;28;19972;-63
2021/09/18 22:57:08;;;;;;;;;;;9.20;99.90;;;;;;8293364;28;20657;-63
2021/09/18 23:01:09;;;;;;;;;;;9.10;99.90;;;;;;8299291;28;19975;-63
2021/09/18 23:05:10;;;;;;;;;;;9.10;99.90;;;;;;8299714;28;20003;-63
2021/09/18 23:09:10;;;;;;;;;;;9.00;99.90;;;;;;8299815;28;19909;-63
2021/09/18 23:13:11;;;;;;;;;;;9.00;99.90;;;;;;8299561;28;19905;-63
2021/09/18 23:17:11;;;;;;;;;;;8.90;99.90;;;;;;8281282;28;20282;-63
2021/09/18 23:21:12;;;;;;;;;;;9.30;99.90;;;;;;8298899;28;19929;-63
2021/09/18 23:25:12;;;;;;;;;;;9.30;99.90;;;;;;8298366;28;19912;-63
2021/09/18 23:29:14;;;;;;;;;;;9.20;99.90;;;;;;8298832;28;19913;-63